Terminal Aerodrome Forecast
Issued by NWS Wilmington, OH

Current Version | Previous Version | Text Only | Print | Product List | Glossary Off
Versions: 1 2 3 4 5 6 7 8 9 10 11 12 13 14 15 16 17 18 19 20 21 22 23 24 25

000
FTUS41 KILN 200800 AAC
TAFCMH
TAF AMD
KCMH 200853Z 2009/2106 03003KT 6SM HZ OVC010
      TEMPO 2009/2010 1 1/2SM -SHRA BR OVC008
     FM201000 07003KT 5SM BR OVC025
     FM201400 13005KT P6SM VCSH OVC025
     FM210100 VRB03KT P6SM BKN035=

USA.gov is the U.S. government's official web portal to all federal, state and local government web resources and services.